Time;durP1;ratioP1;P1;durP2;ratioP2;P2;SDS_P1;SDS_P2;PMS_P1;PMS_P2;Temp;Humidity;BMP_temperature;BMP_pressure;BME280_temperature;BME280_humidity;BME280_pressure;Samples;Min_cycle;Max_cycle;Signal;HPM_P1;HPM_P2
2021/12/07 00:00:42;;;;;;;22.50;11.73;;;;;;;;;;5057160;28;20115;-86
2021/12/07 00:03:07;;;;;;;22.92;13.05;;;;;;;;;;5055602;28;20406;-86
2021/12/07 00:05:32;;;;;;;24.60;12.93;;;;;;;;;;5056434;28;20041;-85
2021/12/07 00:07:58;;;;;;;26.92;13.20;;;;;;;;;;5055876;28;20033;-86
2021/12/07 00:10:23;;;;;;;27.30;14.43;;;;;;;;;;5056163;28;20182;-86
2021/12/07 00:12:49;;;;;;;26.52;14.02;;;;;;;;;;5056924;28;20059;-87
2021/12/07 00:15:17;;;;;;;23.05;13.13;;;;;;;;;;5057057;28;20029;-87
2021/12/07 00:17:43;;;;;;;22.10;12.40;;;;;;;;;;5057074;28;20036;-87
2021/12/07 00:20:12;;;;;;;23.75;11.68;;;;;;;;;;5056836;28;20040;-87
2021/12/07 00:22:38;;;;;;;22.67;11.43;;;;;;;;;;5055574;28;20025;-86
2021/12/07 00:25:05;;;;;;;24.85;11.77;;;;;;;;;;5056780;28;20140;-86
2021/12/07 00:27:30;;;;;;;20.17;10.80;;;;;;;;;;5055489;28;20047;-87
2021/12/07 00:29:56;;;;;;;22.20;12.23;;;;;;;;;;5055816;28;20029;-87
2021/12/07 00:32:28;;;;;;;22.17;11.30;;;;;;;;;;5055527;28;20087;-86
2021/12/07 00:37:38;;;;;;;24.17;10.77;;;;;;;;;;5041917;28;20075;-86
2021/12/07 00:40:05;;;;;;;16.98;10.02;;;;;;;;;;5055448;28;20021;-86
2021/12/07 00:42:30;;;;;;;16.92;9.95;;;;;;;;;;5055211;28;20076;-86
2021/12/07 00:44:56;;;;;;;15.93;10.00;;;;;;;;;;5056466;28;20103;-86
2021/12/07 00:47:21;;;;;;;21.42;9.60;;;;;;;;;;5054831;28;20459;-86
2021/12/07 00:49:47;;;;;;;17.50;9.32;;;;;;;;;;5071704;28;20079;-86
2021/12/07 00:52:12;;;;;;;16.85;9.63;;;;;;;;;;5055555;28;20059;-86
2021/12/07 00:54:38;;;;;;;16.25;9.00;;;;;;;;;;5072037;28;20029;-86
2021/12/07 00:57:04;;;;;;;17.60;10.02;;;;;;;;;;5054949;28;20035;-86
2021/12/07 00:59:30;;;;;;;17.45;9.30;;;;;;;;;;5055362;28;20048;-86
2021/12/07 01:01:56;;;;;;;16.77;9.63;;;;;;;;;;5054819;28;20029;-87
2021/12/07 01:04:23;;;;;;;16.52;9.85;;;;;;;;;;5071508;28;20025;-87
2021/12/07 01:07:02;;;;;;;16.35;9.20;;;;;;;;;;5071339;28;20507;-87
2021/12/07 01:25:25;;;;;;;20.35;9.57;;;;;;;;;;5054467;28;20491;-86
2021/12/07 01:27:52;;;;;;;18.40;9.82;;;;;;;;;;5071059;28;20037;-86
2021/12/07 01:30:35;;;;;;;18.35;9.05;;;;;;;;;;5070901;28;20029;-86
2021/12/07 01:39:35;;;;;;;19.85;10.10;;;;;;;;;;5070214;28;20112;-87
2021/12/07 01:46:12;;;;;;;17.85;8.68;;;;;;;;;;5070290;28;20037;-86
2021/12/07 01:51:21;;;;;;;15.85;8.55;;;;;;;;;;5070957;28;20136;-86
2021/12/07 02:01:43;;;;;;;13.43;8.68;;;;;;;;;;5053969;28;20095;-87
2021/12/07 02:04:08;;;;;;;14.20;8.23;;;;;;;;;;5054861;28;20025;-87
2021/12/07 02:06:34;;;;;;;16.27;8.60;;;;;;;;;;5053776;28;20039;-87
2021/12/07 02:08:59;;;;;;;16.60;8.23;;;;;;;;;;5054748;28;20448;-86
2021/12/07 02:11:25;;;;;;;15.77;8.05;;;;;;;;;;5070255;28;20035;-86
2021/12/07 02:16:25;;;;;;;13.20;7.18;;;;;;;;;;5069284;28;20036;-86
2021/12/07 02:18:51;;;;;;;13.48;7.90;;;;;;;;;;5070258;28;20037;-87
2021/12/07 02:21:19;;;;;;;13.27;7.78;;;;;;;;;;5054397;28;20032;-86
2021/12/07 02:23:44;;;;;;;15.60;8.40;;;;;;;;;;5084817;28;20114;-85
2021/12/07 02:26:10;;;;;;;16.45;8.57;;;;;;;;;;5081236;28;20493;-87
2021/12/07 02:28:39;;;;;;;13.40;8.20;;;;;;;;;;5067738;28;20620;-86
2021/12/07 02:31:04;;;;;;;13.77;8.20;;;;;;;;;;5068418;28;20029;-86
2021/12/07 02:33:31;;;;;;;14.98;7.25;;;;;;;;;;5087316;28;20079;-86
2021/12/07 02:35:57;;;;;;;14.70;7.47;;;;;;;;;;5066979;28;20108;-86
2021/12/07 02:38:22;;;;;;;12.93;7.35;;;;;;;;;;5068105;28;20063;-86
2021/12/07 02:40:48;;;;;;;11.85;7.28;;;;;;;;;;5084152;28;20112;-85
2021/12/07 02:43:13;;;;;;;10.05;6.32;;;;;;;;;;5064555;28;20029;-85
2021/12/07 02:45:39;;;;;;;11.48;6.75;;;;;;;;;;5064338;28;20438;-85
2021/12/07 02:48:04;;;;;;;9.25;6.22;;;;;;;;;;5086047;28;20029;-85
2021/12/07 02:50:30;;;;;;;15.65;7.25;;;;;;;;;;5073646;28;20063;-86
2021/12/07 02:52:55;;;;;;;10.50;5.82;;;;;;;;;;5086656;28;20033;-86
2021/12/07 02:55:21;;;;;;;9.55;6.05;;;;;;;;;;5084550;28;20021;-85
2021/12/07 02:57:47;;;;;;;11.05;6.63;;;;;;;;;;5081627;28;20051;-85
2021/12/07 03:00:18;;;;;;;10.10;6.15;;;;;;;;;;5071922;28;20055;-86
2021/12/07 03:02:53;;;;;;;8.25;5.72;;;;;;;;;;5070014;28;20036;-86
2021/12/07 03:06:23;;;;;;;9.88;5.82;;;;;;;;;;5069743;28;20341;-85
2021/12/07 03:08:29;;;;;;;12.43;6.60;;;;;;;;;;5042536;28;20090;-85
2021/12/07 03:27:20;;;;;;;14.38;6.10;;;;;;;;;;5068209;28;20094;-85
2021/12/07 03:29:45;;;;;;;8.93;5.40;;;;;;;;;;5073458;28;20033;-85
2021/12/07 03:32:14;;;;;;;9.82;6.03;;;;;;;;;;5074333;28;20052;-86
2021/12/07 03:34:39;;;;;;;9.65;5.85;;;;;;;;;;5086071;28;20029;-86
2021/12/07 03:37:05;;;;;;;12.75;5.43;;;;;;;;;;5056603;28;20128;-86
2021/12/07 03:39:30;;;;;;;8.77;5.50;;;;;;;;;;5073278;28;20059;-86
2021/12/07 03:41:56;;;;;;;9.02;5.20;;;;;;;;;;5056381;28;20119;-86
2021/12/07 03:44:21;;;;;;;7.55;4.78;;;;;;;;;;5073301;28;20444;-85
2021/12/07 03:46:47;;;;;;;9.80;4.75;;;;;;;;;;5056504;28;20037;-85
2021/12/07 03:49:13;;;;;;;7.40;4.65;;;;;;;;;;5072527;28;20052;-85
2021/12/07 03:51:39;;;;;;;8.15;5.13;;;;;;;;;;5072926;28;20444;-86
2021/12/07 03:54:06;;;;;;;8.25;5.20;;;;;;;;;;5073020;28;20033;-86
2021/12/07 03:56:32;;;;;;;13.02;6.95;;;;;;;;;;5073120;28;20033;-85
2021/12/07 03:58:58;;;;;;;8.23;4.60;;;;;;;;;;5072858;28;20114;-85
2021/12/07 04:01:24;;;;;;;6.47;4.18;;;;;;;;;;5057025;28;20491;-84
2021/12/07 04:03:50;;;;;;;6.55;4.05;;;;;;;;;;5072660;28;20111;-85
2021/12/07 04:06:15;;;;;;;6.22;4.38;;;;;;;;;;5057193;28;20033;-85
2021/12/07 04:08:42;;;;;;;6.53;4.63;;;;;;;;;;5056056;28;20032;-85
2021/12/07 04:11:07;;;;;;;7.75;5.15;;;;;;;;;;5056425;28;20032;-85
2021/12/07 04:13:33;;;;;;;9.07;5.13;;;;;;;;;;5055762;28;20021;-85
2021/12/07 04:15:59;;;;;;;5.78;4.25;;;;;;;;;;5056851;28;20052;-85
2021/12/07 04:18:25;;;;;;;7.18;4.78;;;;;;;;;;5072238;28;20044;-85
2021/12/07 04:20:51;;;;;;;9.05;5.13;;;;;;;;;;5072467;28;20028;-85
2021/12/07 04:23:16;;;;;;;9.32;5.80;;;;;;;;;;5072242;28;20035;-85
2021/12/07 04:25:42;;;;;;;7.90;5.30;;;;;;;;;;5071951;28;20123;-85
2021/12/07 04:28:08;;;;;;;7.07;4.95;;;;;;;;;;5055156;28;20025;-85
2021/12/07 04:30:36;;;;;;;10.55;5.95;;;;;;;;;;5056572;28;20128;-85
2021/12/07 04:33:02;;;;;;;8.48;5.43;;;;;;;;;;5055277;28;20036;-84
2021/12/07 04:35:28;;;;;;;8.68;5.85;;;;;;;;;;5055429;28;20025;-84
2021/12/07 04:37:54;;;;;;;9.35;6.00;;;;;;;;;;5056282;28;20031;-85
2021/12/07 04:40:23;;;;;;;9.18;5.68;;;;;;;;;;5072001;28;20352;-85
2021/12/07 04:42:49;;;;;;;10.35;6.00;;;;;;;;;;5055301;28;20447;-85
2021/12/07 04:45:30;;;;;;;9.70;6.22;;;;;;;;;;5072138;28;20033;-85
2021/12/07 04:50:42;;;;;;;8.35;6.00;;;;;;;;;;5056852;28;20490;-85
2021/12/07 04:58:36;;;;;;;11.88;6.25;;;;;;;;;;5069132;28;20467;-84
2021/12/07 05:01:09;;;;;;;9.82;6.20;;;;;;;;;;5055254;28;20029;-84
2021/12/07 05:03:35;;;;;;;9.38;6.07;;;;;;;;;;5056459;28;20036;-85
2021/12/07 05:06:02;;;;;;;12.73;6.75;;;;;;;;;;5071616;28;20037;-83
2021/12/07 05:13:33;;;;;;;14.48;8.65;;;;;;;;;;5055446;28;20035;-82
2021/12/07 05:24:17;;;;;;;22.52;10.60;;;;;;;;;;5055253;28;20059;-75
2021/12/07 05:40:10;;;;;;;16.60;9.05;;;;;;;;;;5054155;28;20044;-76
2021/12/07 05:42:36;;;;;;;;;;;;;;;;;;5070593;28;20040;-76
2021/12/07 05:45:02;;;;;;;9.50;5.82;;;;;;;;;;5054051;28;20252;-75
2021/12/07 05:47:27;;;;;;;9.75;6.35;;;;;;;;;;5054923;28;20055;-74
2021/12/07 05:49:54;;;;;;;12.27;5.75;;;;;;;;;;5055129;28;20056;-75
2021/12/07 05:52:33;;;;;;;12.68;7.00;;;;;;;;;;5098219;22;20045;-83
2021/12/07 05:54:59;;;;;;;11.63;5.65;;;;;;;;;;5067909;28;20052;-78
2021/12/07 05:57:33;;;;;;;13.90;7.22;;;;;;;;;;5074909;28;20051;-80
2021/12/07 05:59:59;;;;;;;9.80;7.10;;;;;;;;;;5085961;28;20482;-78
2021/12/07 06:02:25;;;;;;;10.85;6.57;;;;;;;;;;5067493;28;20040;-80
2021/12/07 06:04:50;;;;;;;9.32;6.20;;;;;;;;;;5069274;28;20042;-74
2021/12/07 06:07:16;;;;;;;10.10;5.88;;;;;;;;;;5070546;28;20563;-80
2021/12/07 06:09:41;;;;;;;11.82;6.60;;;;;;;;;;5070893;28;20024;-79
2021/12/07 06:12:08;;;;;;;10.30;5.50;;;;;;;;;;5086014;28;20250;-79
2021/12/07 06:14:41;;;;;;;10.20;5.90;;;;;;;;;;5051418;28;20088;-78
2021/12/07 06:17:07;;;;;;;10.50;5.40;;;;;;;;;;5069192;28;20087;-79
2021/12/07 06:19:32;;;;;;;7.32;4.65;;;;;;;;;;5037563;28;20248;-79
2021/12/07 06:21:58;;;;;;;7.65;5.00;;;;;;;;;;5068982;28;20085;-80
2021/12/07 06:24:27;;;;;;;8.48;4.97;;;;;;;;;;5054063;28;20036;-80
2021/12/07 06:26:53;;;;;;;17.43;6.77;;;;;;;;;;5072296;28;20041;-79
2021/12/07 06:29:18;;;;;;;22.50;7.78;;;;;;;;;;5072643;28;20031;-79
2021/12/07 06:31:44;;;;;;;10.95;5.88;;;;;;;;;;5074974;28;20025;-80
2021/12/07 06:34:10;;;;;;;16.55;8.32;;;;;;;;;;5073659;28;20032;-79
2021/12/07 06:36:37;;;;;;;22.77;9.27;;;;;;;;;;5074861;28;20047;-79
2021/12/07 06:39:04;;;;;;;18.67;9.93;;;;;;;;;;5074159;28;20028;-78
2021/12/07 06:41:29;;;;;;;19.45;9.70;;;;;;;;;;5074676;28;20032;-79
2021/12/07 06:43:55;;;;;;;18.17;9.82;;;;;;;;;;5076699;28;20119;-81
2021/12/07 06:46:20;;;;;;;19.33;9.93;;;;;;;;;;5074230;28;20132;-79
2021/12/07 06:48:48;;;;;;;15.57;9.13;;;;;;;;;;5087849;28;20172;-81
2021/12/07 06:51:14;;;;;;;18.27;9.75;;;;;;;;;;5086327;28;20037;-81
2021/12/07 06:53:40;;;;;;;21.27;10.38;;;;;;;;;;5071707;28;20044;-79
2021/12/07 06:56:09;;;;;;;11.13;6.07;;;;;;;;;;5076402;28;20526;-79
2021/12/07 06:58:35;;;;;;;19.60;8.48;;;;;;;;;;5072822;28;20444;-80
2021/12/07 07:01:07;;;;;;;18.58;8.93;;;;;;;;;;5072384;28;20127;-79
2021/12/07 07:03:33;;;;;;;17.65;8.57;;;;;;;;;;5090826;28;20084;-79
2021/12/07 07:05:59;;;;;;;21.75;10.05;;;;;;;;;;5075884;28;20097;-78
2021/12/07 07:08:25;;;;;;;19.15;9.63;;;;;;;;;;5073894;28;20101;-80
2021/12/07 07:10:50;;;;;;;19.65;8.32;;;;;;;;;;5091078;28;20437;-78
2021/12/07 07:13:16;;;;;;;25.90;11.23;;;;;;;;;;5074667;28;20086;-78
2021/12/07 07:15:41;;;;;;;22.10;10.73;;;;;;;;;;5090204;28;20029;-79
2021/12/07 07:18:07;;;;;;;25.60;12.27;;;;;;;;;;5089906;28;20032;-80
2021/12/07 07:20:32;;;;;;;22.25;10.82;;;;;;;;;;5057728;28;20036;-80
2021/12/07 07:22:58;;;;;;;26.50;12.30;;;;;;;;;;5075849;28;20359;-80
2021/12/07 07:25:23;;;;;;;30.75;13.95;;;;;;;;;;5075684;28;20131;-80
2021/12/07 07:27:49;;;;;;;27.95;11.68;;;;;;;;;;5092867;28;20071;-80
2021/12/07 07:30:17;;;;;;;37.80;14.35;;;;;;;;;;5093597;28;20033;-82
2021/12/07 07:32:43;;;;;;;34.60;14.13;;;;;;;;;;5076538;28;20098;-74
2021/12/07 07:35:09;;;;;;;31.77;13.73;;;;;;;;;;5077537;28;20040;-78
2021/12/07 07:37:37;;;;;;;27.65;11.65;;;;;;;;;;5078866;28;20039;-79
2021/12/07 07:40:21;;;;;;;25.02;10.27;;;;;;;;;;5078212;28;20028;-80
2021/12/07 07:42:51;;;;;;;18.17;7.22;;;;;;;;;;5076064;28;20115;-81
2021/12/07 07:45:19;;;;;;;15.90;6.68;;;;;;;;;;5090424;28;20025;-81
2021/12/07 07:47:45;;;;;;;13.63;6.55;;;;;;;;;;5075052;28;20028;-77
2021/12/07 07:50:11;;;;;;;17.48;7.05;;;;;;;;;;5078256;28;20640;-81
2021/12/07 07:52:37;;;;;;;11.73;5.72;;;;;;;;;;5086783;28;20041;-78
2021/12/07 07:55:03;;;;;;;11.73;6.20;;;;;;;;;;5069296;28;20047;-82
2021/12/07 07:57:28;;;;;;;15.43;7.90;;;;;;;;;;5069281;28;20505;-82
2021/12/07 07:59:53;;;;;;;15.93;8.23;;;;;;;;;;5039303;28;20075;-81
2021/12/07 08:02:19;;;;;;;15.02;7.63;;;;;;;;;;5069220;28;20095;-81
2021/12/07 08:04:46;;;;;;;19.63;9.25;;;;;;;;;;5073131;28;20154;-85
2021/12/07 08:07:12;;;;;;;12.63;6.47;;;;;;;;;;5072405;28;20028;-84
2021/12/07 08:09:38;;;;;;;17.05;8.63;;;;;;;;;;5040788;28;20032;-88
2021/12/07 08:12:05;;;;;;;16.23;8.82;;;;;;;;;;5066162;28;20025;-90
2021/12/07 08:14:32;;;;;;;19.83;7.40;;;;;;;;;;5080154;28;20311;-87
2021/12/07 08:16:57;;;;;;;14.77;7.43;;;;;;;;;;5078840;28;20050;-85
2021/12/07 08:19:23;;;;;;;20.13;9.15;;;;;;;;;;5073570;28;20036;-88
2021/12/07 08:21:48;;;;;;;17.38;8.70;;;;;;;;;;5049745;28;20020;-87
2021/12/07 08:24:14;;;;;;;17.92;9.07;;;;;;;;;;5057136;28;20475;-81
2021/12/07 08:26:40;;;;;;;19.52;9.77;;;;;;;;;;5072935;28;20064;-85
2021/12/07 08:29:05;;;;;;;25.77;11.52;;;;;;;;;;5075244;28;20028;-86
2021/12/07 08:31:31;;;;;;;46.42;17.88;;;;;;;;;;5083170;28;20063;-85
2021/12/07 08:33:57;;;;;;;48.60;18.30;;;;;;;;;;5062974;28;20021;-80
2021/12/07 08:36:22;;;;;;;35.75;14.02;;;;;;;;;;5067622;28;20125;-79
2021/12/07 08:38:49;;;;;;;34.38;13.15;;;;;;;;;;5063462;28;20032;-81
2021/12/07 08:41:15;;;;;;;29.83;11.68;;;;;;;;;;5066239;28;20029;-80
2021/12/07 08:43:41;;;;;;;36.95;14.18;;;;;;;;;;5084656;28;20036;-81
2021/12/07 08:46:07;;;;;;;31.27;11.73;;;;;;;;;;5066507;28;20040;-79
2021/12/07 08:48:36;;;;;;;21.02;8.63;;;;;;;;;;5071428;28;20032;-79
2021/12/07 08:51:03;;;;;;;27.20;11.10;;;;;;;;;;5065743;28;20086;-80
2021/12/07 08:53:29;;;;;;;22.75;10.88;;;;;;;;;;5082518;28;20407;-80
2021/12/07 09:01:27;;;;;;;29.38;12.98;;;;;;;;;;5083646;28;20035;-80
2021/12/07 09:03:53;;;;;;;32.08;14.50;;;;;;;;;;5083479;28;20040;-79
2021/12/07 09:06:19;;;;;;;29.48;11.60;;;;;;;;;;5058408;28;20033;-86
2021/12/07 09:08:45;;;;;;;25.08;11.35;;;;;;;;;;5081832;28;20471;-85
2021/12/07 09:11:11;;;;;;;19.48;9.07;;;;;;;;;;5088556;28;20025;-83
2021/12/07 09:13:37;;;;;;;26.42;11.38;;;;;;;;;;5054683;28;20020;-86
2021/12/07 09:16:03;;;;;;;27.88;11.90;;;;;;;;;;5092315;28;20024;-87
2021/12/07 09:18:29;;;;;;;23.42;9.95;;;;;;;;;;5058927;28;20024;-85
2021/12/07 09:20:57;;;;;;;18.60;9.35;;;;;;;;;;5092768;28;20037;-87
2021/12/07 09:23:38;;;;;;;15.95;8.52;;;;;;;;;;5062016;28;20024;-86
2021/12/07 09:27:04;;;;;;;15.60;8.07;;;;;;;;;;5079023;28;20067;-86
2021/12/07 09:29:30;;;;;;;13.80;7.25;;;;;;;;;;5066489;28;20040;-89
2021/12/07 09:31:59;;;;;;;18.30;8.45;;;;;;;;;;5076046;28;20032;-87
2021/12/07 09:34:24;;;;;;;22.67;10.13;;;;;;;;;;5053439;28;20106;-89
2021/12/07 09:36:50;;;;;;;16.25;8.18;;;;;;;;;;5055995;28;20040;-88
2021/12/07 09:39:18;;;;;;;21.70;11.02;;;;;;;;;;5083458;28;20032;-89
2021/12/07 09:41:44;;;;;;;22.20;10.93;;;;;;;;;;5058444;28;20025;-90
2021/12/07 09:44:10;;;;;;;30.13;14.05;;;;;;;;;;5075336;28;20044;-88
2021/12/07 09:46:35;;;;;;;25.65;11.45;;;;;;;;;;5059387;28;20029;-86
2021/12/07 09:52:02;;;;;;;32.58;14.27;;;;;;;;;;5071311;28;20021;-88
2021/12/07 09:54:28;;;;;;;33.63;13.85;;;;;;;;;;5041255;28;20028;-90
2021/12/07 09:56:53;;;;;;;24.48;12.35;;;;;;;;;;5048521;28;20032;-87
2021/12/07 09:59:19;;;;;;;26.52;13.55;;;;;;;;;;5046287;28;20028;-87
2021/12/07 10:01:48;;;;;;;23.42;12.27;;;;;;;;;;5077655;28;20037;-89
2021/12/07 10:04:15;;;;;;;30.05;12.80;;;;;;;;;;5080008;28;20025;-85
2021/12/07 10:06:40;;;;;;;24.92;13.18;;;;;;;;;;5097160;28;20051;-88
2021/12/07 10:09:06;;;;;;;24.23;12.00;;;;;;;;;;5070698;28;20037;-87
2021/12/07 10:11:31;;;;;;;32.55;14.10;;;;;;;;;;5062647;28;20036;-88
2021/12/07 10:13:57;;;;;;;39.45;15.20;;;;;;;;;;5073150;28;20024;-87
2021/12/07 10:16:23;;;;;;;28.13;13.07;;;;;;;;;;5073202;28;20036;-86
2021/12/07 10:18:49;;;;;;;30.35;13.55;;;;;;;;;;5077425;28;20029;-87
2021/12/07 10:21:23;;;;;;;28.83;11.95;;;;;;;;;;5073436;28;21492;-87
2021/12/07 10:23:55;;;;;;;24.90;12.02;;;;;;;;;;5098566;28;20024;-78
2021/12/07 10:26:28;;;;;;;23.42;11.85;;;;;;;;;;5042895;28;20040;-79
2021/12/07 10:28:55;;;;;;;20.98;10.55;;;;;;;;;;5071692;28;20381;-79
2021/12/07 10:31:28;;;;;;;30.35;13.23;;;;;;;;;;5072600;28;20077;-82
2021/12/07 10:34:02;;;;;;;25.95;11.88;;;;;;;;;;5089003;28;20020;-82
2021/12/07 10:37:16;;;;;;;27.92;11.95;;;;;;;;;;5079389;28;20035;-84
2021/12/07 10:39:52;;;;;;;36.65;11.07;;;;;;;;;;5044711;28;20050;-83
2021/12/07 10:42:29;;;;;;;30.60;11.63;;;;;;;;;;5046561;28;20044;-84
2021/12/07 10:45:32;;;;;;;30.55;12.15;;;;;;;;;;5073248;28;20039;-83
2021/12/07 10:48:00;;;;;;;30.45;11.25;;;;;;;;;;5072969;28;20039;-84
2021/12/07 10:50:29;;;;;;;24.35;10.32;;;;;;;;;;5070399;28;20040;-81
2021/12/07 10:52:56;;;;;;;28.30;11.63;;;;;;;;;;5071922;28;20131;-83
2021/12/07 10:55:23;;;;;;;26.98;11.35;;;;;;;;;;5072447;28;20028;-82
2021/12/07 10:58:02;;;;;;;23.13;10.82;;;;;;;;;;5054993;28;20450;-83
2021/12/07 11:00:37;;;;;;;35.08;13.98;;;;;;;;;;5061021;28;20039;-83
2021/12/07 11:03:11;;;;;;;25.75;11.32;;;;;;;;;;5040226;28;20060;-81
2021/12/07 11:05:50;;;;;;;29.45;11.70;;;;;;;;;;5055840;28;20021;-84
2021/12/07 11:08:18;;;;;;;27.08;11.20;;;;;;;;;;5043685;28;20032;-82
2021/12/07 11:10:47;;;;;;;26.80;11.85;;;;;;;;;;5063157;28;20031;-84
2021/12/07 11:13:20;;;;;;;18.45;8.30;;;;;;;;;;5057111;28;20020;-84
2021/12/07 11:15:56;;;;;;;18.15;8.18;;;;;;;;;;5057959;28;20048;-83
2021/12/07 11:18:24;;;;;;;20.70;8.75;;;;;;;;;;5075015;28;20078;-78
2021/12/07 11:20:50;;;;;;;16.17;6.97;;;;;;;;;;5070119;28;20029;-78
2021/12/07 11:23:30;;;;;;;15.38;7.43;;;;;;;;;;5070261;28;20157;-77
2021/12/07 11:31:56;;;;;;;19.85;8.80;;;;;;;;;;5074112;28;20048;-84
2021/12/07 11:34:41;;;;;;;22.38;9.55;;;;;;;;;;5073958;22;20064;-84
2021/12/07 11:37:12;;;;;;;15.68;7.90;;;;;;;;;;5039342;28;20037;-83
2021/12/07 11:39:50;;;;;;;16.02;8.63;;;;;;;;;;5051478;28;20026;-79
2021/12/07 11:42:32;;;;;;;17.75;9.40;;;;;;;;;;5031812;28;20032;-82
2021/12/07 11:45:22;;;;;;;23.25;10.18;;;;;;;;;;5035297;28;20025;-84
2021/12/07 11:48:05;;;;;;;20.43;9.17;;;;;;;;;;5033982;28;20029;-84
2021/12/07 11:50:43;;;;;;;16.55;8.70;;;;;;;;;;5053694;28;20039;-83
2021/12/07 11:53:20;;;;;;;25.40;11.48;;;;;;;;;;5054818;28;20025;-83
2021/12/07 11:55:48;;;;;;;17.38;9.10;;;;;;;;;;5053382;28;20107;-85
2021/12/07 11:58:16;;;;;;;23.60;9.98;;;;;;;;;;5081020;28;20029;-83
2021/12/07 12:00:44;;;;;;;24.75;11.25;;;;;;;;;;5059489;28;20078;-78
2021/12/07 12:03:11;;;;;;;18.15;9.25;;;;;;;;;;5067430;28;20029;-77
2021/12/07 12:05:38;;;;;;;16.45;7.75;;;;;;;;;;5054449;28;20371;-90
2021/12/07 12:08:08;;;;;;;15.07;7.25;;;;;;;;;;5037139;28;20047;-86
2021/12/07 12:10:36;;;;;;;15.15;7.70;;;;;;;;;;5054684;28;20115;-88
2021/12/07 12:13:29;;;;;;;17.70;8.10;;;;;;;;;;5053636;28;20352;-89
2021/12/07 12:16:43;;;;;;;18.38;8.65;;;;;;;;;;5068501;28;20128;-85
2021/12/07 12:19:56;;;;;;;25.30;10.82;;;;;;;;;;5020926;28;20049;-87
2021/12/07 12:22:50;;;;;;;25.33;11.45;;;;;;;;;;5056456;28;20493;-87
2021/12/07 12:25:21;;;;;;;20.85;10.50;;;;;;;;;;5055953;28;20471;-88
2021/12/07 12:27:49;;;;;;;18.42;9.57;;;;;;;;;;5056216;28;20524;-84
2021/12/07 12:30:37;;;;;;;15.13;8.05;;;;;;;;;;5056074;28;20021;-87
2021/12/07 12:33:14;;;;;;;14.40;8.20;;;;;;;;;;5040563;28;20037;-88
2021/12/07 12:36:01;;;;;;;15.60;9.10;;;;;;;;;;5074187;28;20071;-85
2021/12/07 12:38:31;;;;;;;17.95;9.10;;;;;;;;;;5073500;28;20041;-86
2021/12/07 12:41:08;;;;;;;22.35;12.25;;;;;;;;;;5074047;28;20041;-86
2021/12/07 12:43:57;;;;;;;17.95;8.98;;;;;;;;;;5077569;28;20029;-87
2021/12/07 12:46:27;;;;;;;17.88;9.63;;;;;;;;;;5072520;28;20029;-89
2021/12/07 12:48:54;;;;;;;;;;;;;;;;;;5073407;28;20025;-85
2021/12/07 12:51:20;;;;;;;17.83;8.63;;;;;;;;;;5055955;28;19913;-80
2021/12/07 12:53:46;;;;;;;42.28;18.48;;;;;;;;;;5071360;28;20159;-77
2021/12/07 12:56:20;;;;;;;27.77;14.10;;;;;;;;;;5071112;28;20032;-79
2021/12/07 12:58:53;;;;;;;44.17;16.95;;;;;;;;;;5056232;28;20021;-90
2021/12/07 13:01:39;;;;;;;36.72;15.45;;;;;;;;;;5056232;28;20119;-87
2021/12/07 13:04:12;;;;;;;32.28;12.65;;;;;;;;;;5056057;28;20041;-89
2021/12/07 13:06:53;;;;;;;31.38;12.23;;;;;;;;;;5071591;28;20440;-86
2021/12/07 13:09:22;;;;;;;66.78;19.85;;;;;;;;;;5041161;28;20040;-86
2021/12/07 13:12:07;;;;;;;44.40;17.20;;;;;;;;;;5055192;28;20068;-88
2021/12/07 13:14:37;;;;;;;35.78;13.98;;;;;;;;;;5054924;28;20119;-88
2021/12/07 13:17:25;;;;;;;35.17;15.25;;;;;;;;;;5054480;28;20078;-86
2021/12/07 13:20:17;;;;;;;33.67;14.38;;;;;;;;;;5051494;28;20032;-86
2021/12/07 13:22:53;;;;;;;27.50;11.88;;;;;;;;;;5072280;28;20033;-88
2021/12/07 13:25:48;;;;;;;24.85;12.07;;;;;;;;;;5071492;28;20021;-89
2021/12/07 13:28:18;;;;;;;30.77;13.90;;;;;;;;;;5049570;28;20105;-89
2021/12/07 13:30:52;;;;;;;35.95;16.65;;;;;;;;;;5051808;28;20067;-88
2021/12/07 13:33:35;;;;;;;27.52;13.23;;;;;;;;;;5053087;28;20064;-87
2021/12/07 13:36:01;;;;;;;22.88;9.43;;;;;;;;;;5068573;28;20043;-87
2021/12/07 13:38:31;;;;;;;26.52;12.07;;;;;;;;;;5068262;28;20037;-87
2021/12/07 13:41:15;;;;;;;;;;;;;;;;;;5071147;28;20025;-85
2021/12/07 13:43:45;;;;;;;29.45;11.95;;;;;;;;;;5055948;28;19913;-78
2021/12/07 13:46:19;;;;;;;41.85;17.45;;;;;;;;;;5069059;28;20037;-78
2021/12/07 13:48:46;;;;;;;31.23;12.25;;;;;;;;;;5068745;28;20036;-85
2021/12/07 13:51:12;;;;;;;22.17;9.80;;;;;;;;;;5070671;28;20117;-84
2021/12/07 13:53:39;;;;;;;26.20;12.02;;;;;;;;;;5054050;28;20017;-84
2021/12/07 13:56:05;;;;;;;25.77;11.95;;;;;;;;;;5037766;28;20020;-85
2021/12/07 13:58:48;;;;;;;24.08;11.48;;;;;;;;;;5053621;28;20428;-84
2021/12/07 14:01:13;;;;;;;29.88;13.13;;;;;;;;;;5053579;28;20029;-85
2021/12/07 14:03:43;;;;;;;26.98;12.30;;;;;;;;;;5055697;28;20491;-84
2021/12/07 14:06:08;;;;;;;28.70;13.27;;;;;;;;;;5070147;28;20029;-84
2021/12/07 14:08:34;;;;;;;18.05;8.50;;;;;;;;;;5070017;28;20123;-85
2021/12/07 14:11:05;;;;;;;22.85;9.73;;;;;;;;;;5053962;28;20341;-85
2021/12/07 14:13:31;;;;;;;24.35;11.00;;;;;;;;;;5053400;28;20123;-86
2021/12/07 14:15:56;;;;;;;27.52;11.75;;;;;;;;;;5070197;28;20498;-85
2021/12/07 14:18:24;;;;;;;20.83;7.95;;;;;;;;;;5053983;28;20383;-87
2021/12/07 14:20:52;;;;;;;20.73;9.10;;;;;;;;;;5053518;28;20025;-84
2021/12/07 14:23:24;;;;;;;23.40;10.20;;;;;;;;;;5069469;28;20063;-83
2021/12/07 14:26:01;;;;;;;25.55;11.10;;;;;;;;;;5069323;28;20037;-83
2021/12/07 14:28:33;;;;;;;26.48;12.10;;;;;;;;;;5069506;28;20060;-83
2021/12/07 14:31:19;;;;;;;22.63;10.55;;;;;;;;;;5069817;28;20127;-85
2021/12/07 14:33:44;;;;;;;19.85;9.07;;;;;;;;;;5053775;28;20353;-86
2021/12/07 14:36:10;;;;;;;18.83;9.57;;;;;;;;;;5054604;28;20036;-85
2021/12/07 14:38:36;;;;;;;20.33;10.27;;;;;;;;;;5070064;28;20025;-85
2021/12/07 14:41:12;;;;;;;26.48;11.70;;;;;;;;;;5069597;28;20025;-85
2021/12/07 14:43:38;;;;;;;23.67;10.40;;;;;;;;;;5069877;28;20372;-87
2021/12/07 14:46:05;;;;;;;20.73;10.13;;;;;;;;;;5070237;28;20044;-86
2021/12/07 14:48:31;;;;;;;28.38;12.32;;;;;;;;;;5053000;28;20044;-85
2021/12/07 14:51:10;;;;;;;25.70;12.98;;;;;;;;;;5053199;28;20025;-84
2021/12/07 14:53:41;;;;;;;28.13;13.02;;;;;;;;;;5069051;28;20039;-85
2021/12/07 14:56:06;;;;;;;33.40;14.32;;;;;;;;;;5069846;28;20075;-85
2021/12/07 14:58:35;;;;;;;39.58;17.90;;;;;;;;;;5069951;28;20511;-89
2021/12/07 15:01:01;;;;;;;26.40;10.02;;;;;;;;;;5052868;28;20031;-86
2021/12/07 15:03:41;;;;;;;20.38;8.93;;;;;;;;;;5036830;28;20029;-88
2021/12/07 15:06:07;;;;;;;21.85;9.98;;;;;;;;;;5074547;28;20068;-90
2021/12/07 15:08:34;;;;;;;31.65;13.70;;;;;;;;;;5070081;28;20033;-85
2021/12/07 15:11:00;;;;;;;31.98;14.45;;;;;;;;;;5069740;28;20027;-89
2021/12/07 15:13:26;;;;;;;23.35;10.70;;;;;;;;;;5053555;28;20029;-87
2021/12/07 15:15:53;;;;;;;28.73;9.60;;;;;;;;;;5053364;28;20032;-86
2021/12/07 15:18:18;;;;;;;26.58;11.93;;;;;;;;;;5052767;28;20116;-85
2021/12/07 15:20:48;;;;;;;24.98;10.90;;;;;;;;;;5053555;28;20053;-87
2021/12/07 15:23:13;;;;;;;27.58;15.35;;;;;;;;;;5039429;28;20075;-79
2021/12/07 15:25:40;;;;;;;21.23;9.88;;;;;;;;;;5057032;28;20037;-80
2021/12/07 15:28:05;;;;;;;26.52;11.93;;;;;;;;;;5072989;28;20036;-90
2021/12/07 15:30:32;;;;;;;23.80;10.80;;;;;;;;;;5041482;28;20029;-88
2021/12/07 15:32:57;;;;;;;18.40;9.43;;;;;;;;;;5074683;28;20029;-88
2021/12/07 15:35:24;;;;;;;21.67;9.63;;;;;;;;;;5074030;28;20036;-88
2021/12/07 15:37:50;;;;;;;24.50;12.20;;;;;;;;;;5058893;28;20517;-87
2021/12/07 15:40:15;;;;;;;20.02;10.30;;;;;;;;;;5058221;28;20033;-88
2021/12/07 15:42:41;;;;;;;17.05;9.23;;;;;;;;;;5073687;28;20032;-86
2021/12/07 15:45:09;;;;;;;15.15;8.65;;;;;;;;;;5061861;28;20031;-88
2021/12/07 15:47:40;;;;;;;20.02;10.05;;;;;;;;;;5077071;28;20029;-89
2021/12/07 15:50:08;;;;;;;24.77;10.25;;;;;;;;;;5055810;28;20119;-88
2021/12/07 15:52:39;;;;;;;24.83;11.15;;;;;;;;;;5054719;28;20131;-90
2021/12/07 15:55:07;;;;;;;24.05;10.85;;;;;;;;;;5052201;28;20044;-90
2021/12/07 15:58:06;;;;;;;25.10;12.07;;;;;;;;;;5056545;28;20436;-91
2021/12/07 16:00:37;;;;;;;32.95;16.17;;;;;;;;;;5041844;28;20032;-89
2021/12/07 16:03:38;;;;;;;37.92;17.40;;;;;;;;;;5056757;28;20029;-88
2021/12/07 16:06:39;;;;;;;33.13;14.98;;;;;;;;;;5076374;28;20036;-88
2021/12/07 16:09:17;;;;;;;29.08;12.27;;;;;;;;;;5056923;28;20531;-87
2021/12/07 16:11:43;;;;;;;32.78;13.88;;;;;;;;;;5057072;28;20431;-88
2021/12/07 16:14:08;;;;;;;40.10;18.35;;;;;;;;;;5073858;28;20053;-88
2021/12/07 16:16:43;;;;;;;31.60;15.85;;;;;;;;;;5040872;28;20096;-88
2021/12/07 16:19:08;;;;;;;29.23;15.10;;;;;;;;;;5059575;28;20025;-86
2021/12/07 16:21:34;;;;;;;35.03;18.20;;;;;;;;;;5073104;28;20017;-87
2021/12/07 16:24:00;;;;;;;43.00;18.35;;;;;;;;;;5074939;28;20059;-86
2021/12/07 16:26:26;;;;;;;36.50;19.33;;;;;;;;;;5057277;28;20059;-88
2021/12/07 16:28:54;;;;;;;38.63;17.73;;;;;;;;;;5070310;28;20440;-87